sensor_id;sensor_type;location;lat;lon;timestamp;P1;durP1;ratioP1;P2;durP2;ratioP2
23163;SDS011;31429;42.674;23.350;2023-04-16T00:00:44;5.50;;;3.55;;
23163;SDS011;31429;42.674;23.350;2023-04-16T00:01:45;5.95;;;4.25;;
23163;SDS011;31429;42.674;23.350;2023-04-16T00:02:46;5.77;;;3.57;;
23163;SDS011;31429;42.674;23.350;2023-04-16T00:03:46;4.77;;;3.13;;
23163;SDS011;31429;42.674;23.350;2023-04-16T00:04:47;4.47;;;3.10;;
23163;SDS011;31429;42.674;23.350;2023-04-16T00:05:48;5.77;;;3.50;;
23163;SDS011;31429;42.674;23.350;2023-04-16T00:06:48;9.57;;;3.83;;
23163;SDS011;31429;42.674;23.350;2023-04-16T00:07:50;5.77;;;3.60;;
23163;SDS011;31429;42.674;23.350;2023-04-16T00:08:51;8.13;;;3.58;;
23163;SDS011;31429;42.674;23.350;2023-04-16T00:09:52;7.40;;;3.50;;
23163;SDS011;31429;42.674;23.350;2023-04-16T00:10:53;9.53;;;3.73;;
23163;SDS011;31429;42.674;23.350;2023-04-16T00:11:53;4.83;;;3.50;;
23163;SDS011;31429;42.674;23.350;2023-04-16T00:12:54;5.40;;;3.40;;
23163;SDS011;31429;42.674;23.350;2023-04-16T00:13:55;5.97;;;4.07;;
23163;SDS011;31429;42.674;23.350;2023-04-16T00:14:55;5.17;;;3.50;;
23163;SDS011;31429;42.674;23.350;2023-04-16T00:15:56;6.53;;;3.67;;
23163;SDS011;31429;42.674;23.350;2023-04-16T00:16:58;4.72;;;3.78;;
23163;SDS011;31429;42.674;23.350;2023-04-16T00:17:58;6.43;;;3.90;;
23163;SDS011;31429;42.674;23.350;2023-04-16T00:18:59;5.07;;;3.67;;
23163;SDS011;31429;42.674;23.350;2023-04-16T00:20:00;4.23;;;3.83;;
23163;SDS011;31429;42.674;23.350;2023-04-16T00:21:01;8.17;;;3.63;;
23163;SDS011;31429;42.674;23.350;2023-04-16T00:22:01;7.07;;;4.17;;
23163;SDS011;31429;42.674;23.350;2023-04-16T00:23:03;5.00;;;3.60;;
23163;SDS011;31429;42.674;23.350;2023-04-16T00:24:04;6.43;;;3.70;;
23163;SDS011;31429;42.674;23.350;2023-04-16T00:25:05;8.43;;;3.90;;
23163;SDS011;31429;42.674;23.350;2023-04-16T00:26:06;5.78;;;3.97;;
23163;SDS011;31429;42.674;23.350;2023-04-16T00:27:07;6.70;;;3.60;;
23163;SDS011;31429;42.674;23.350;2023-04-16T00:28:08;5.43;;;4.10;;
23163;SDS011;31429;42.674;23.350;2023-04-16T00:29:09;5.20;;;4.00;;
23163;SDS011;31429;42.674;23.350;2023-04-16T00:30:10;6.13;;;4.10;;
23163;SDS011;31429;42.674;23.350;2023-04-16T00:31:11;5.72;;;3.30;;
23163;SDS011;31429;42.674;23.350;2023-04-16T00:32:11;5.23;;;3.33;;
23163;SDS011;31429;42.674;23.350;2023-04-16T00:33:12;4.00;;;3.60;;
23163;SDS011;31429;42.674;23.350;2023-04-16T00:34:13;7.43;;;3.80;;
23163;SDS011;31429;42.674;23.350;2023-04-16T00:35:13;4.10;;;3.70;;
23163;SDS011;31429;42.674;23.350;2023-04-16T00:36:14;5.40;;;4.10;;
23163;SDS011;31429;42.674;23.350;2023-04-16T00:37:15;5.17;;;3.67;;
23163;SDS011;31429;42.674;23.350;2023-04-16T00:38:17;7.33;;;3.87;;
23163;SDS011;31429;42.674;23.350;2023-04-16T00:39:17;6.18;;;3.95;;
23163;SDS011;31429;42.674;23.350;2023-04-16T00:40:18;5.73;;;3.97;;
23163;SDS011;31429;42.674;23.350;2023-04-16T00:41:19;8.57;;;4.23;;
23163;SDS011;31429;42.674;23.350;2023-04-16T00:42:19;4.87;;;4.07;;
23163;SDS011;31429;42.674;23.350;2023-04-16T00:43:20;8.00;;;4.17;;
23163;SDS011;31429;42.674;23.350;2023-04-16T00:44:23;7.88;;;4.00;;
23163;SDS011;31429;42.674;23.350;2023-04-16T00:45:24;4.53;;;3.40;;
23163;SDS011;31429;42.674;23.350;2023-04-16T00:46:25;7.10;;;4.03;;
23163;SDS011;31429;42.674;23.350;2023-04-16T00:47:26;7.47;;;4.05;;
23163;SDS011;31429;42.674;23.350;2023-04-16T00:48:27;5.97;;;4.30;;
23163;SDS011;31429;42.674;23.350;2023-04-16T00:49:27;5.30;;;3.73;;
23163;SDS011;31429;42.674;23.350;2023-04-16T00:50:29;6.10;;;4.28;;
23163;SDS011;31429;42.674;23.350;2023-04-16T00:51:30;6.03;;;4.00;;
23163;SDS011;31429;42.674;23.350;2023-04-16T00:52:31;5.65;;;4.05;;
23163;SDS011;31429;42.674;23.350;2023-04-16T00:53:33;6.77;;;4.10;;
23163;SDS011;31429;42.674;23.350;2023-04-16T00:54:34;6.47;;;4.20;;
23163;SDS011;31429;42.674;23.350;2023-04-16T00:55:35;7.33;;;4.23;;
23163;SDS011;31429;42.674;23.350;2023-04-16T00:56:37;6.68;;;4.35;;
23163;SDS011;31429;42.674;23.350;2023-04-16T00:57:38;5.13;;;3.72;;
23163;SDS011;31429;42.674;23.350;2023-04-16T00:58:39;7.67;;;4.20;;
23163;SDS011;31429;42.674;23.350;2023-04-16T00:59:40;6.80;;;4.50;;
23163;SDS011;31429;42.674;23.350;2023-04-16T01:00:41;6.50;;;4.17;;
23163;SDS011;31429;42.674;23.350;2023-04-16T01:01:41;9.57;;;4.57;;
23163;SDS011;31429;42.674;23.350;2023-04-16T01:02:42;7.93;;;4.80;;
23163;SDS011;31429;42.674;23.350;2023-04-16T01:03:43;5.40;;;3.90;;
23163;SDS011;31429;42.674;23.350;2023-04-16T01:04:46;7.72;;;4.43;;
23163;SDS011;31429;42.674;23.350;2023-04-16T01:05:47;6.17;;;4.33;;
23163;SDS011;31429;42.674;23.350;2023-04-16T01:06:50;5.47;;;3.95;;
23163;SDS011;31429;42.674;23.350;2023-04-16T01:07:51;7.33;;;4.40;;
23163;SDS011;31429;42.674;23.350;2023-04-16T01:08:53;7.57;;;4.70;;
23163;SDS011;31429;42.674;23.350;2023-04-16T01:09:54;6.50;;;4.75;;
23163;SDS011;31429;42.674;23.350;2023-04-16T01:10:55;5.55;;;4.45;;
23163;SDS011;31429;42.674;23.350;2023-04-16T01:11:56;8.03;;;4.50;;
23163;SDS011;31429;42.674;23.350;2023-04-16T01:12:56;8.73;;;3.97;;
23163;SDS011;31429;42.674;23.350;2023-04-16T01:13:57;4.83;;;4.30;;
23163;SDS011;31429;42.674;23.350;2023-04-16T01:14:57;6.20;;;4.27;;
23163;SDS011;31429;42.674;23.350;2023-04-16T01:15:58;7.70;;;4.90;;
23163;SDS011;31429;42.674;23.350;2023-04-16T01:16:59;6.18;;;4.30;;
23163;SDS011;31429;42.674;23.350;2023-04-16T01:18:00;6.63;;;4.50;;
23163;SDS011;31429;42.674;23.350;2023-04-16T01:19:01;8.83;;;5.80;;
23163;SDS011;31429;42.674;23.350;2023-04-16T01:20:02;12.90;;;5.07;;
23163;SDS011;31429;42.674;23.350;2023-04-16T01:21:04;8.27;;;5.50;;
23163;SDS011;31429;42.674;23.350;2023-04-16T01:22:05;9.68;;;5.07;;
23163;SDS011;31429;42.674;23.350;2023-04-16T01:23:06;7.83;;;5.10;;
23163;SDS011;31429;42.674;23.350;2023-04-16T01:24:06;15.03;;;7.20;;
23163;SDS011;31429;42.674;23.350;2023-04-16T01:25:07;12.27;;;6.60;;
23163;SDS011;31429;42.674;23.350;2023-04-16T01:26:12;9.93;;;6.85;;
23163;SDS011;31429;42.674;23.350;2023-04-16T01:27:13;9.63;;;7.00;;
23163;SDS011;31429;42.674;23.350;2023-04-16T01:28:13;9.10;;;6.83;;
23163;SDS011;31429;42.674;23.350;2023-04-16T01:29:14;8.77;;;6.30;;
23163;SDS011;31429;42.674;23.350;2023-04-16T01:30:14;9.33;;;6.77;;
23163;SDS011;31429;42.674;23.350;2023-04-16T01:31:15;7.77;;;5.97;;
23163;SDS011;31429;42.674;23.350;2023-04-16T01:32:16;8.93;;;5.80;;
23163;SDS011;31429;42.674;23.350;2023-04-16T01:33:17;11.40;;;6.00;;
23163;SDS011;31429;42.674;23.350;2023-04-16T01:34:18;9.27;;;6.10;;
23163;SDS011;31429;42.674;23.350;2023-04-16T01:35:18;10.67;;;6.27;;
23163;SDS011;31429;42.674;23.350;2023-04-16T01:36:20;10.00;;;6.67;;
23163;SDS011;31429;42.674;23.350;2023-04-16T01:37:21;9.25;;;7.10;;
23163;SDS011;31429;42.674;23.350;2023-04-16T01:38:22;10.93;;;6.93;;
23163;SDS011;31429;42.674;23.350;2023-04-16T01:39:22;12.60;;;7.33;;
23163;SDS011;31429;42.674;23.350;2023-04-16T01:40:23;12.90;;;8.57;;
23163;SDS011;31429;42.674;23.350;2023-04-16T01:41:24;12.23;;;7.50;;
23163;SDS011;31429;42.674;23.350;2023-04-16T01:42:24;10.83;;;7.43;;
23163;SDS011;31429;42.674;23.350;2023-04-16T01:43:25;10.90;;;8.13;;
23163;SDS011;31429;42.674;23.350;2023-04-16T01:44:26;13.03;;;7.97;;
23163;SDS011;31429;42.674;23.350;2023-04-16T01:45:27;11.60;;;8.00;;
23163;SDS011;31429;42.674;23.350;2023-04-16T01:46:28;12.80;;;8.63;;
23163;SDS011;31429;42.674;23.350;2023-04-16T01:47:30;10.38;;;7.15;;
23163;SDS011;31429;42.674;23.350;2023-04-16T01:48:31;13.37;;;7.40;;
23163;SDS011;31429;42.674;23.350;2023-04-16T01:49:32;10.75;;;6.80;;
23163;SDS011;31429;42.674;23.350;2023-04-16T01:50:33;12.18;;;6.80;;
23163;SDS011;31429;42.674;23.350;2023-04-16T01:51:35;9.73;;;7.23;;
23163;SDS011;31429;42.674;23.350;2023-04-16T01:52:36;10.95;;;7.38;;
23163;SDS011;31429;42.674;23.350;2023-04-16T01:53:36;9.67;;;6.87;;
23163;SDS011;31429;42.674;23.350;2023-04-16T01:54:37;12.27;;;7.53;;
23163;SDS011;31429;42.674;23.350;2023-04-16T01:55:38;12.83;;;7.43;;
23163;SDS011;31429;42.674;23.350;2023-04-16T01:56:38;12.57;;;7.77;;
23163;SDS011;31429;42.674;23.350;2023-04-16T01:57:39;9.07;;;7.50;;
23163;SDS011;31429;42.674;23.350;2023-04-16T01:58:39;11.20;;;7.13;;
23163;SDS011;31429;42.674;23.350;2023-04-16T01:59:41;9.73;;;7.25;;
23163;SDS011;31429;42.674;23.350;2023-04-16T02:00:42;11.47;;;7.83;;
23163;SDS011;31429;42.674;23.350;2023-04-16T02:01:43;13.80;;;7.10;;
23163;SDS011;31429;42.674;23.350;2023-04-16T02:02:43;9.10;;;6.60;;
23163;SDS011;31429;42.674;23.350;2023-04-16T02:03:44;11.63;;;6.87;;
23163;SDS011;31429;42.674;23.350;2023-04-16T02:04:45;11.87;;;7.47;;
23163;SDS011;31429;42.674;23.350;2023-04-16T02:05:46;11.93;;;6.67;;
23163;SDS011;31429;42.674;23.350;2023-04-16T02:06:48;9.87;;;6.93;;
23163;SDS011;31429;42.674;23.350;2023-04-16T02:07:48;10.52;;;7.15;;
23163;SDS011;31429;42.674;23.350;2023-04-16T02:08:49;11.33;;;7.80;;
23163;SDS011;31429;42.674;23.350;2023-04-16T02:09:50;10.97;;;7.53;;
23163;SDS011;31429;42.674;23.350;2023-04-16T02:10:51;10.90;;;7.00;;
23163;SDS011;31429;42.674;23.350;2023-04-16T02:11:51;12.43;;;8.03;;
23163;SDS011;31429;42.674;23.350;2023-04-16T02:12:52;12.90;;;7.20;;
23163;SDS011;31429;42.674;23.350;2023-04-16T02:13:53;10.47;;;7.50;;
23163;SDS011;31429;42.674;23.350;2023-04-16T02:14:53;10.13;;;7.57;;
23163;SDS011;31429;42.674;23.350;2023-04-16T02:15:54;9.10;;;7.23;;
23163;SDS011;31429;42.674;23.350;2023-04-16T02:16:55;11.17;;;7.03;;
23163;SDS011;31429;42.674;23.350;2023-04-16T02:17:55;9.23;;;7.53;;
23163;SDS011;31429;42.674;23.350;2023-04-16T02:18:56;9.87;;;7.10;;
23163;SDS011;31429;42.674;23.350;2023-04-16T02:19:57;11.63;;;7.00;;
23163;SDS011;31429;42.674;23.350;2023-04-16T02:20:57;11.23;;;6.80;;
23163;SDS011;31429;42.674;23.350;2023-04-16T02:22:00;10.00;;;7.13;;
23163;SDS011;31429;42.674;23.350;2023-04-16T02:23:01;10.18;;;6.78;;
23163;SDS011;31429;42.674;23.350;2023-04-16T02:24:02;9.90;;;7.17;;
23163;SDS011;31429;42.674;23.350;2023-04-16T02:25:03;10.70;;;7.20;;
23163;SDS011;31429;42.674;23.350;2023-04-16T02:26:04;10.77;;;7.05;;
23163;SDS011;31429;42.674;23.350;2023-04-16T02:27:04;13.23;;;6.60;;
23163;SDS011;31429;42.674;23.350;2023-04-16T02:28:05;12.50;;;7.10;;
23163;SDS011;31429;42.674;23.350;2023-04-16T02:29:06;9.65;;;6.75;;
23163;SDS011;31429;42.674;23.350;2023-04-16T02:30:07;10.57;;;6.90;;
23163;SDS011;31429;42.674;23.350;2023-04-16T02:31:09;6.50;;;5.05;;
23163;SDS011;31429;42.674;23.350;2023-04-16T02:32:10;8.50;;;5.53;;
23163;SDS011;31429;42.674;23.350;2023-04-16T02:33:11;8.13;;;5.97;;
23163;SDS011;31429;42.674;23.350;2023-04-16T02:34:12;7.53;;;5.80;;
23163;SDS011;31429;42.674;23.350;2023-04-16T02:35:13;7.73;;;5.90;;
23163;SDS011;31429;42.674;23.350;2023-04-16T02:36:13;8.53;;;5.87;;
23163;SDS011;31429;42.674;23.350;2023-04-16T02:37:15;7.95;;;6.13;;
23163;SDS011;31429;42.674;23.350;2023-04-16T02:38:16;8.68;;;5.30;;
23163;SDS011;31429;42.674;23.350;2023-04-16T02:39:17;6.17;;;4.70;;
23163;SDS011;31429;42.674;23.350;2023-04-16T02:40:17;8.13;;;4.97;;
23163;SDS011;31429;42.674;23.350;2023-04-16T02:41:18;6.53;;;5.40;;
23163;SDS011;31429;42.674;23.350;2023-04-16T02:42:19;8.67;;;4.63;;
23163;SDS011;31429;42.674;23.350;2023-04-16T02:43:20;9.03;;;4.70;;
23163;SDS011;31429;42.674;23.350;2023-04-16T02:44:20;7.27;;;4.77;;
23163;SDS011;31429;42.674;23.350;2023-04-16T02:45:21;9.40;;;4.53;;
23163;SDS011;31429;42.674;23.350;2023-04-16T02:46:23;6.35;;;4.28;;
23163;SDS011;31429;42.674;23.350;2023-04-16T02:47:23;5.73;;;4.30;;
23163;SDS011;31429;42.674;23.350;2023-04-16T02:48:24;9.37;;;4.80;;
23163;SDS011;31429;42.674;23.350;2023-04-16T02:49:25;9.10;;;5.17;;
23163;SDS011;31429;42.674;23.350;2023-04-16T02:50:26;7.63;;;3.97;;
23163;SDS011;31429;42.674;23.350;2023-04-16T02:51:26;6.60;;;4.00;;
23163;SDS011;31429;42.674;23.350;2023-04-16T02:52:28;7.37;;;4.50;;
23163;SDS011;31429;42.674;23.350;2023-04-16T02:53:29;7.03;;;4.55;;
23163;SDS011;31429;42.674;23.350;2023-04-16T02:54:30;6.20;;;4.10;;
23163;SDS011;31429;42.674;23.350;2023-04-16T02:55:30;11.27;;;4.40;;
23163;SDS011;31429;42.674;23.350;2023-04-16T02:56:31;9.20;;;4.70;;
23163;SDS011;31429;42.674;23.350;2023-04-16T02:57:31;6.47;;;4.57;;
23163;SDS011;31429;42.674;23.350;2023-04-16T02:58:32;7.47;;;4.97;;
23163;SDS011;31429;42.674;23.350;2023-04-16T02:59:33;6.80;;;4.53;;
23163;SDS011;31429;42.674;23.350;2023-04-16T03:00:33;5.80;;;4.27;;
23163;SDS011;31429;42.674;23.350;2023-04-16T03:01:34;6.80;;;4.00;;
23163;SDS011;31429;42.674;23.350;2023-04-16T03:02:35;5.47;;;3.90;;
23163;SDS011;31429;42.674;23.350;2023-04-16T03:03:35;7.17;;;4.00;;
23163;SDS011;31429;42.674;23.350;2023-04-16T03:04:36;6.50;;;4.07;;
23163;SDS011;31429;42.674;23.350;2023-04-16T03:05:36;7.33;;;3.87;;
23163;SDS011;31429;42.674;23.350;2023-04-16T03:06:37;4.40;;;3.60;;
23163;SDS011;31429;42.674;23.350;2023-04-16T03:07:39;4.90;;;3.97;;
23163;SDS011;31429;42.674;23.350;2023-04-16T03:08:40;4.40;;;3.65;;
23163;SDS011;31429;42.674;23.350;2023-04-16T03:09:40;6.40;;;3.93;;
23163;SDS011;31429;42.674;23.350;2023-04-16T03:10:41;7.17;;;3.93;;
23163;SDS011;31429;42.674;23.350;2023-04-16T03:11:42;5.63;;;4.13;;
23163;SDS011;31429;42.674;23.350;2023-04-16T03:12:42;6.33;;;3.90;;
23163;SDS011;31429;42.674;23.350;2023-04-16T03:13:43;5.37;;;3.60;;
23163;SDS011;31429;42.674;23.350;2023-04-16T03:14:43;4.53;;;3.37;;
23163;SDS011;31429;42.674;23.350;2023-04-16T03:15:46;6.67;;;3.60;;
23163;SDS011;31429;42.674;23.350;2023-04-16T03:16:47;5.25;;;3.45;;
23163;SDS011;31429;42.674;23.350;2023-04-16T03:17:48;5.00;;;3.30;;
23163;SDS011;31429;42.674;23.350;2023-04-16T03:18:49;4.83;;;2.97;;
23163;SDS011;31429;42.674;23.350;2023-04-16T03:19:49;5.67;;;3.70;;
23163;SDS011;31429;42.674;23.350;2023-04-16T03:20:50;5.30;;;3.40;;
23163;SDS011;31429;42.674;23.350;2023-04-16T03:21:51;5.13;;;3.63;;
23163;SDS011;31429;42.674;23.350;2023-04-16T03:22:53;4.43;;;3.53;;
23163;SDS011;31429;42.674;23.350;2023-04-16T03:23:54;5.82;;;3.67;;
23163;SDS011;31429;42.674;23.350;2023-04-16T03:24:55;4.40;;;3.10;;
23163;SDS011;31429;42.674;23.350;2023-04-16T03:25:56;5.13;;;3.43;;
23163;SDS011;31429;42.674;23.350;2023-04-16T03:26:56;4.27;;;3.40;;
23163;SDS011;31429;42.674;23.350;2023-04-16T03:27:57;6.15;;;3.53;;
23163;SDS011;31429;42.674;23.350;2023-04-16T03:28:58;5.17;;;3.60;;
23163;SDS011;31429;42.674;23.350;2023-04-16T03:30:01;5.50;;;3.35;;
23163;SDS011;31429;42.674;23.350;2023-04-16T03:31:02;4.05;;;3.50;;
23163;SDS011;31429;42.674;23.350;2023-04-16T03:32:03;3.80;;;2.80;;
23163;SDS011;31429;42.674;23.350;2023-04-16T03:33:03;4.70;;;3.33;;
23163;SDS011;31429;42.674;23.350;2023-04-16T03:34:04;4.87;;;3.40;;
23163;SDS011;31429;42.674;23.350;2023-04-16T03:35:05;5.67;;;3.20;;
23163;SDS011;31429;42.674;23.350;2023-04-16T03:36:07;6.75;;;3.47;;
23163;SDS011;31429;42.674;23.350;2023-04-16T03:37:09;4.55;;;3.45;;
23163;SDS011;31429;42.674;23.350;2023-04-16T03:38:12;4.35;;;3.85;;
23163;SDS011;31429;42.674;23.350;2023-04-16T03:39:13;5.20;;;3.17;;
23163;SDS011;31429;42.674;23.350;2023-04-16T03:40:13;5.57;;;3.57;;
23163;SDS011;31429;42.674;23.350;2023-04-16T03:41:14;5.13;;;3.27;;
23163;SDS011;31429;42.674;23.350;2023-04-16T03:42:15;4.63;;;3.20;;
23163;SDS011;31429;42.674;23.350;2023-04-16T03:43:16;6.90;;;3.20;;
23163;SDS011;31429;42.674;23.350;2023-04-16T03:44:16;4.90;;;3.50;;
23163;SDS011;31429;42.674;23.350;2023-04-16T03:45:17;5.40;;;3.63;;
23163;SDS011;31429;42.674;23.350;2023-04-16T03:46:17;4.27;;;3.50;;
23163;SDS011;31429;42.674;23.350;2023-04-16T03:47:18;5.47;;;3.60;;
23163;SDS011;31429;42.674;23.350;2023-04-16T03:48:18;4.63;;;3.43;;
23163;SDS011;31429;42.674;23.350;2023-04-16T03:49:19;8.13;;;3.57;;
23163;SDS011;31429;42.674;23.350;2023-04-16T03:50:20;4.60;;;3.43;;
23163;SDS011;31429;42.674;23.350;2023-04-16T03:51:21;8.23;;;4.17;;
23163;SDS011;31429;42.674;23.350;2023-04-16T03:52:21;6.80;;;3.70;;
23163;SDS011;31429;42.674;23.350;2023-04-16T03:53:23;6.53;;;3.13;;
23163;SDS011;31429;42.674;23.350;2023-04-16T03:54:24;4.47;;;3.30;;
23163;SDS011;31429;42.674;23.350;2023-04-16T03:55:25;4.83;;;3.63;;
23163;SDS011;31429;42.674;23.350;2023-04-16T03:56:25;5.00;;;4.00;;
23163;SDS011;31429;42.674;23.350;2023-04-16T03:57:26;6.77;;;3.50;;
23163;SDS011;31429;42.674;23.350;2023-04-16T03:58:26;6.60;;;4.20;;
23163;SDS011;31429;42.674;23.350;2023-04-16T03:59:27;4.50;;;3.47;;
23163;SDS011;31429;42.674;23.350;2023-04-16T04:00:28;4.80;;;3.43;;
23163;SDS011;31429;42.674;23.350;2023-04-16T04:01:29;7.20;;;3.95;;
23163;SDS011;31429;42.674;23.350;2023-04-16T04:02:30;7.73;;;3.93;;
23163;SDS011;31429;42.674;23.350;2023-04-16T04:03:30;4.23;;;3.63;;
23163;SDS011;31429;42.674;23.350;2023-04-16T04:04:31;7.80;;;3.50;;
23163;SDS011;31429;42.674;23.350;2023-04-16T04:05:34;6.17;;;3.43;;
23163;SDS011;31429;42.674;23.350;2023-04-16T04:06:35;4.50;;;3.17;;
23163;SDS011;31429;42.674;23.350;2023-04-16T04:07:36;5.50;;;3.33;;
23163;SDS011;31429;42.674;23.350;2023-04-16T04:08:38;4.60;;;3.43;;
23163;SDS011;31429;42.674;23.350;2023-04-16T04:09:38;5.30;;;3.58;;
23163;SDS011;31429;42.674;23.350;2023-04-16T04:10:39;6.87;;;4.27;;
23163;SDS011;31429;42.674;23.350;2023-04-16T04:11:40;6.70;;;3.77;;
23163;SDS011;31429;42.674;23.350;2023-04-16T04:12:41;5.13;;;4.00;;
23163;SDS011;31429;42.674;23.350;2023-04-16T04:13:41;5.33;;;3.40;;
23163;SDS011;31429;42.674;23.350;2023-04-16T04:14:42;4.65;;;3.50;;
23163;SDS011;31429;42.674;23.350;2023-04-16T04:15:42;3.87;;;3.23;;
23163;SDS011;31429;42.674;23.350;2023-04-16T04:16:43;5.13;;;3.70;;
23163;SDS011;31429;42.674;23.350;2023-04-16T04:17:44;4.10;;;3.70;;
23163;SDS011;31429;42.674;23.350;2023-04-16T04:18:45;4.70;;;3.17;;
23163;SDS011;31429;42.674;23.350;2023-04-16T04:19:45;4.30;;;3.30;;
23163;SDS011;31429;42.674;23.350;2023-04-16T04:20:46;8.60;;;3.63;;
23163;SDS011;31429;42.674;23.350;2023-04-16T04:21:47;5.63;;;3.67;;
23163;SDS011;31429;42.674;23.350;2023-04-16T04:22:48;5.77;;;4.13;;
23163;SDS011;31429;42.674;23.350;2023-04-16T04:23:50;5.68;;;3.88;;
23163;SDS011;31429;42.674;23.350;2023-04-16T04:24:51;8.25;;;4.60;;
23163;SDS011;31429;42.674;23.350;2023-04-16T04:25:51;7.03;;;4.30;;
23163;SDS011;31429;42.674;23.350;2023-04-16T04:26:52;7.07;;;4.43;;
23163;SDS011;31429;42.674;23.350;2023-04-16T04:27:53;8.00;;;4.83;;
23163;SDS011;31429;42.674;23.350;2023-04-16T04:28:53;6.67;;;4.23;;
23163;SDS011;31429;42.674;23.350;2023-04-16T04:29:54;7.70;;;4.30;;
23163;SDS011;31429;42.674;23.350;2023-04-16T04:30:55;7.63;;;4.38;;
23163;SDS011;31429;42.674;23.350;2023-04-16T04:31:56;8.67;;;5.30;;
23163;SDS011;31429;42.674;23.350;2023-04-16T04:32:58;9.80;;;6.00;;
23163;SDS011;31429;42.674;23.350;2023-04-16T04:33:58;9.30;;;6.70;;
23163;SDS011;31429;42.674;23.350;2023-04-16T04:35:00;10.30;;;6.93;;
23163;SDS011;31429;42.674;23.350;2023-04-16T04:36:01;10.98;;;6.88;;
23163;SDS011;31429;42.674;23.350;2023-04-16T04:37:02;10.60;;;7.27;;
23163;SDS011;31429;42.674;23.350;2023-04-16T04:38:02;10.30;;;6.63;;
23163;SDS011;31429;42.674;23.350;2023-04-16T04:39:05;11.63;;;7.88;;
23163;SDS011;31429;42.674;23.350;2023-04-16T04:40:06;11.02;;;6.90;;
23163;SDS011;31429;42.674;23.350;2023-04-16T04:41:08;9.80;;;6.72;;
23163;SDS011;31429;42.674;23.350;2023-04-16T04:42:09;8.57;;;6.07;;
23163;SDS011;31429;42.674;23.350;2023-04-16T04:43:10;10.33;;;5.70;;
23163;SDS011;31429;42.674;23.350;2023-04-16T04:44:11;8.83;;;6.13;;
23163;SDS011;31429;42.674;23.350;2023-04-16T04:45:11;9.00;;;6.03;;
23163;SDS011;31429;42.674;23.350;2023-04-16T04:46:12;11.33;;;6.10;;
23163;SDS011;31429;42.674;23.350;2023-04-16T04:47:13;9.67;;;5.73;;
23163;SDS011;31429;42.674;23.350;2023-04-16T04:48:14;9.60;;;5.95;;
23163;SDS011;31429;42.674;23.350;2023-04-16T04:49:15;10.15;;;6.65;;
23163;SDS011;31429;42.674;23.350;2023-04-16T04:50:15;8.33;;;6.37;;
23163;SDS011;31429;42.674;23.350;2023-04-16T04:51:16;11.50;;;6.70;;
23163;SDS011;31429;42.674;23.350;2023-04-16T04:52:17;10.97;;;7.10;;
23163;SDS011;31429;42.674;23.350;2023-04-16T04:53:19;12.32;;;7.50;;
23163;SDS011;31429;42.674;23.350;2023-04-16T04:54:21;10.20;;;6.93;;
23163;SDS011;31429;42.674;23.350;2023-04-16T04:55:22;11.90;;;6.82;;
23163;SDS011;31429;42.674;23.350;2023-04-16T04:56:23;13.57;;;7.83;;
23163;SDS011;31429;42.674;23.350;2023-04-16T04:57:23;11.60;;;7.07;;
23163;SDS011;31429;42.674;23.350;2023-04-16T04:58:24;8.63;;;6.80;;
23163;SDS011;31429;42.674;23.350;2023-04-16T04:59:25;9.07;;;6.93;;
23163;SDS011;31429;42.674;23.350;2023-04-16T05:00:25;13.07;;;6.67;;
23163;SDS011;31429;42.674;23.350;2023-04-16T05:01:26;11.70;;;6.60;;
23163;SDS011;31429;42.674;23.350;2023-04-16T05:02:27;11.97;;;7.00;;
23163;SDS011;31429;42.674;23.350;2023-04-16T05:03:27;9.03;;;6.13;;
23163;SDS011;31429;42.674;23.350;2023-04-16T05:04:28;9.13;;;6.43;;
23163;SDS011;31429;42.674;23.350;2023-04-16T05:05:29;11.60;;;6.47;;
23163;SDS011;31429;42.674;23.350;2023-04-16T05:06:29;7.97;;;6.27;;
23163;SDS011;31429;42.674;23.350;2023-04-16T05:07:30;11.00;;;6.60;;
23163;SDS011;31429;42.674;23.350;2023-04-16T05:08:31;12.17;;;6.53;;
23163;SDS011;31429;42.674;23.350;2023-04-16T05:09:33;8.13;;;6.90;;
23163;SDS011;31429;42.674;23.350;2023-04-16T05:10:34;11.50;;;6.78;;
23163;SDS011;31429;42.674;23.350;2023-04-16T05:11:34;9.00;;;6.77;;
23163;SDS011;31429;42.674;23.350;2023-04-16T05:12:35;10.77;;;6.57;;
23163;SDS011;31429;42.674;23.350;2023-04-16T05:13:35;14.33;;;7.67;;
23163;SDS011;31429;42.674;23.350;2023-04-16T05:14:36;14.17;;;7.50;;
23163;SDS011;31429;42.674;23.350;2023-04-16T05:15:37;13.33;;;7.30;;
23163;SDS011;31429;42.674;23.350;2023-04-16T05:16:37;9.33;;;6.67;;
23163;SDS011;31429;42.674;23.350;2023-04-16T05:17:38;11.37;;;7.77;;
23163;SDS011;31429;42.674;23.350;2023-04-16T05:18:39;11.83;;;8.03;;
23163;SDS011;31429;42.674;23.350;2023-04-16T05:19:39;11.83;;;7.87;;
23163;SDS011;31429;42.674;23.350;2023-04-16T05:20:40;10.27;;;7.63;;
23163;SDS011;31429;42.674;23.350;2023-04-16T05:21:41;12.23;;;7.70;;
23163;SDS011;31429;42.674;23.350;2023-04-16T05:22:41;11.47;;;8.20;;
23163;SDS011;31429;42.674;23.350;2023-04-16T05:23:42;11.70;;;7.90;;
23163;SDS011;31429;42.674;23.350;2023-04-16T05:24:44;12.37;;;7.53;;
23163;SDS011;31429;42.674;23.350;2023-04-16T05:25:44;11.98;;;8.20;;
23163;SDS011;31429;42.674;23.350;2023-04-16T05:26:45;16.43;;;8.73;;
23163;SDS011;31429;42.674;23.350;2023-04-16T05:27:46;11.97;;;8.00;;
23163;SDS011;31429;42.674;23.350;2023-04-16T05:28:46;18.70;;;7.70;;
23163;SDS011;31429;42.674;23.350;2023-04-16T05:29:47;10.73;;;8.03;;
23163;SDS011;31429;42.674;23.350;2023-04-16T05:30:47;11.37;;;8.30;;
23163;SDS011;31429;42.674;23.350;2023-04-16T05:31:48;13.90;;;8.30;;
23163;SDS011;31429;42.674;23.350;2023-04-16T05:32:49;9.60;;;7.10;;
23163;SDS011;31429;42.674;23.350;2023-04-16T05:33:49;11.10;;;7.10;;
23163;SDS011;31429;42.674;23.350;2023-04-16T05:34:50;9.43;;;7.03;;
23163;SDS011;31429;42.674;23.350;2023-04-16T05:35:50;15.33;;;6.80;;
23163;SDS011;31429;42.674;23.350;2023-04-16T05:36:51;12.93;;;7.70;;
23163;SDS011;31429;42.674;23.350;2023-04-16T05:37:52;13.27;;;8.23;;
23163;SDS011;31429;42.674;23.350;2023-04-16T05:38:52;10.50;;;6.70;;
23163;SDS011;31429;42.674;23.350;2023-04-16T05:39:54;15.73;;;7.93;;
23163;SDS011;31429;42.674;23.350;2023-04-16T05:40:56;11.13;;;7.20;;
23163;SDS011;31429;42.674;23.350;2023-04-16T05:41:57;11.45;;;6.55;;
23163;SDS011;31429;42.674;23.350;2023-04-16T05:42:58;11.23;;;6.73;;
23163;SDS011;31429;42.674;23.350;2023-04-16T05:43:59;10.47;;;6.87;;
23163;SDS011;31429;42.674;23.350;2023-04-16T05:45:00;13.70;;;7.47;;
23163;SDS011;31429;42.674;23.350;2023-04-16T05:46:02;11.38;;;7.13;;
23163;SDS011;31429;42.674;23.350;2023-04-16T05:47:03;10.93;;;6.50;;
23163;SDS011;31429;42.674;23.350;2023-04-16T05:48:03;11.77;;;6.80;;
23163;SDS011;31429;42.674;23.350;2023-04-16T05:49:04;11.85;;;7.05;;
23163;SDS011;31429;42.674;23.350;2023-04-16T05:50:05;14.10;;;7.03;;
23163;SDS011;31429;42.674;23.350;2023-04-16T05:51:06;7.65;;;6.30;;
23163;SDS011;31429;42.674;23.350;2023-04-16T05:52:07;10.57;;;7.10;;
23163;SDS011;31429;42.674;23.350;2023-04-16T05:53:08;11.48;;;7.05;;
23163;SDS011;31429;42.674;23.350;2023-04-16T05:54:10;14.60;;;6.97;;
23163;SDS011;31429;42.674;23.350;2023-04-16T05:55:11;11.27;;;6.43;;
23163;SDS011;31429;42.674;23.350;2023-04-16T05:56:12;10.23;;;6.90;;
23163;SDS011;31429;42.674;23.350;2023-04-16T05:57:13;14.67;;;6.37;;
23163;SDS011;31429;42.674;23.350;2023-04-16T05:58:13;10.20;;;6.93;;
23163;SDS011;31429;42.674;23.350;2023-04-16T05:59:14;12.33;;;6.90;;
23163;SDS011;31429;42.674;23.350;2023-04-16T06:00:15;10.97;;;6.47;;